Terminal Aerodrome Forecast
Issued by NWS Tallahassee, FL

Home | Current Version | Previous Version | Text Only | Print | Product List | Glossary On
Versions: 1 2 3 4 5 6 7 8 9 10 11 12 13 14 15 16 17 18
000
FTUS42 KTAE 282300
TAFTLH
TAF
KTLH 282320Z 0100/0124 05008KT 4SM -RA OVC006
     FM010600 06007KT 2SM -RA BR OVC004
     FM011600 36005KT P6SM OVC009=

USA.gov is the U.S. government's official web portal to all federal, state and local government web resources and services.